Americus, Missouri
Current Conditions -  °F | °C
As of 4:15 PM on Monday 20 Oct 2014 (Local Time) from KFYG Reporting Station
Clear Clear  
Wind Chill: 73°   Ceiling: Unl
Heat Index: 73°   Visibility: 10mi
Dew Point: 41°   Wind: 12mph
Humidity: 31%   Direction: 310°NW
Pressure: 29.95"   Gusts: NA
Location:  38.7604°N, 91.5317°W
Report Text: KFYG 202115Z AUTO 31010KT 10SM CLR 23/05 A2995 RMK AO2
Loading
Personal Weather Stations






























Interactive Weather Map
Tropical Storm Tracking
New forecast layout! Learn more

10-Day Weather Forecast

Advertisements
Track Severe Weather on mobile